sensor_id;sensor_type;location;lat;lon;timestamp;P1;durP1;ratioP1;P2;durP2;ratioP2
60239;SDS011;46102;39.012;-7.064;2023-08-12T00:00:55;9.80;;;2.20;;
60239;SDS011;46102;39.012;-7.064;2023-08-12T00:02:56;4.22;;;0.90;;
60239;SDS011;46102;39.012;-7.064;2023-08-12T00:04:57;7.43;;;1.25;;
60239;SDS011;46102;39.012;-7.064;2023-08-12T00:06:58;4.63;;;1.00;;
60239;SDS011;46102;39.012;-7.064;2023-08-12T00:08:58;2.80;;;1.13;;
60239;SDS011;46102;39.012;-7.064;2023-08-12T00:10:59;5.40;;;1.20;;
60239;SDS011;46102;39.012;-7.064;2023-08-12T00:13:00;6.18;;;1.50;;
60239;SDS011;46102;39.012;-7.064;2023-08-12T00:15:01;6.75;;;1.35;;
60239;SDS011;46102;39.012;-7.064;2023-08-12T00:17:03;4.03;;;1.40;;
60239;SDS011;46102;39.012;-7.064;2023-08-12T00:19:04;3.90;;;1.10;;
60239;SDS011;46102;39.012;-7.064;2023-08-12T00:21:07;3.80;;;1.95;;
60239;SDS011;46102;39.012;-7.064;2023-08-12T00:23:10;6.55;;;1.45;;
60239;SDS011;46102;39.012;-7.064;2023-08-12T00:25:10;3.88;;;1.00;;
60239;SDS011;46102;39.012;-7.064;2023-08-12T00:27:11;5.40;;;1.30;;
60239;SDS011;46102;39.012;-7.064;2023-08-12T00:29:12;5.40;;;1.08;;
60239;SDS011;46102;39.012;-7.064;2023-08-12T00:31:13;5.75;;;1.20;;
60239;SDS011;46102;39.012;-7.064;2023-08-12T00:33:13;1.92;;;1.27;;
60239;SDS011;46102;39.012;-7.064;2023-08-12T00:35:14;2.88;;;1.08;;
60239;SDS011;46102;39.012;-7.064;2023-08-12T00:37:15;2.33;;;1.25;;
60239;SDS011;46102;39.012;-7.064;2023-08-12T00:39:16;3.17;;;1.13;;
60239;SDS011;46102;39.012;-7.064;2023-08-12T00:41:17;4.40;;;1.10;;
60239;SDS011;46102;39.012;-7.064;2023-08-12T00:43:18;3.28;;;1.52;;
60239;SDS011;46102;39.012;-7.064;2023-08-12T00:45:18;4.38;;;1.00;;
60239;SDS011;46102;39.012;-7.064;2023-08-12T00:47:19;5.20;;;1.10;;
60239;SDS011;46102;39.012;-7.064;2023-08-12T00:49:23;4.82;;;1.10;;
60239;SDS011;46102;39.012;-7.064;2023-08-12T00:51:24;2.17;;;0.93;;
60239;SDS011;46102;39.012;-7.064;2023-08-12T00:53:25;1.77;;;1.02;;
60239;SDS011;46102;39.012;-7.064;2023-08-12T00:55:26;2.97;;;1.00;;
60239;SDS011;46102;39.012;-7.064;2023-08-12T00:57:27;5.00;;;1.15;;
60239;SDS011;46102;39.012;-7.064;2023-08-12T00:59:28;6.68;;;1.33;;
60239;SDS011;46102;39.012;-7.064;2023-08-12T01:01:29;4.05;;;1.35;;
60239;SDS011;46102;39.012;-7.064;2023-08-12T01:03:30;8.00;;;1.40;;
60239;SDS011;46102;39.012;-7.064;2023-08-12T01:05:31;8.00;;;1.20;;
60239;SDS011;46102;39.012;-7.064;2023-08-12T01:07:33;2.40;;;1.20;;
60239;SDS011;46102;39.012;-7.064;2023-08-12T01:09:34;5.57;;;1.40;;
60239;SDS011;46102;39.012;-7.064;2023-08-12T01:11:36;6.45;;;0.98;;
60239;SDS011;46102;39.012;-7.064;2023-08-12T01:16:05;6.22;;;1.10;;
60239;SDS011;46102;39.012;-7.064;2023-08-12T01:18:08;10.73;;;1.20;;
60239;SDS011;46102;39.012;-7.064;2023-08-12T01:20:10;4.47;;;1.33;;
60239;SDS011;46102;39.012;-7.064;2023-08-12T01:22:15;10.32;;;1.95;;
60239;SDS011;46102;39.012;-7.064;2023-08-12T01:24:20;7.13;;;1.55;;
60239;SDS011;46102;39.012;-7.064;2023-08-12T01:26:22;6.82;;;1.60;;
60239;SDS011;46102;39.012;-7.064;2023-08-12T01:28:22;6.28;;;1.50;;
60239;SDS011;46102;39.012;-7.064;2023-08-12T01:30:24;6.22;;;1.20;;
60239;SDS011;46102;39.012;-7.064;2023-08-12T01:32:38;4.47;;;1.45;;
60239;SDS011;46102;39.012;-7.064;2023-08-12T01:34:50;5.20;;;1.58;;
60239;SDS011;46102;39.012;-7.064;2023-08-12T01:36:58;10.38;;;1.30;;
60239;SDS011;46102;39.012;-7.064;2023-08-12T01:39:01;4.80;;;1.38;;
60239;SDS011;46102;39.012;-7.064;2023-08-12T01:41:01;4.60;;;1.42;;
60239;SDS011;46102;39.012;-7.064;2023-08-12T01:43:03;8.88;;;1.98;;
60239;SDS011;46102;39.012;-7.064;2023-08-12T01:45:05;3.53;;;1.30;;
60239;SDS011;46102;39.012;-7.064;2023-08-12T01:47:07;6.55;;;1.85;;
60239;SDS011;46102;39.012;-7.064;2023-08-12T01:49:08;11.00;;;1.40;;
60239;SDS011;46102;39.012;-7.064;2023-08-12T01:51:09;8.50;;;2.38;;
60239;SDS011;46102;39.012;-7.064;2023-08-12T01:53:11;8.80;;;2.25;;
60239;SDS011;46102;39.012;-7.064;2023-08-12T01:55:12;10.55;;;1.92;;
60239;SDS011;46102;39.012;-7.064;2023-08-12T01:57:12;11.27;;;2.10;;
60239;SDS011;46102;39.012;-7.064;2023-08-12T01:59:13;9.35;;;1.73;;
60239;SDS011;46102;39.012;-7.064;2023-08-12T02:01:14;10.13;;;1.80;;
60239;SDS011;46102;39.012;-7.064;2023-08-12T02:03:15;2.95;;;1.40;;
60239;SDS011;46102;39.012;-7.064;2023-08-12T02:05:16;5.38;;;1.95;;
60239;SDS011;46102;39.012;-7.064;2023-08-12T02:07:16;8.15;;;1.55;;
60239;SDS011;46102;39.012;-7.064;2023-08-12T02:09:17;7.53;;;1.40;;
60239;SDS011;46102;39.012;-7.064;2023-08-12T02:11:18;8.95;;;1.83;;
60239;SDS011;46102;39.012;-7.064;2023-08-12T02:13:18;6.28;;;2.08;;
60239;SDS011;46102;39.012;-7.064;2023-08-12T02:15:19;8.45;;;2.30;;
60239;SDS011;46102;39.012;-7.064;2023-08-12T02:17:20;3.53;;;1.92;;
60239;SDS011;46102;39.012;-7.064;2023-08-12T02:19:21;7.75;;;2.17;;
60239;SDS011;46102;39.012;-7.064;2023-08-12T02:21:22;6.38;;;1.70;;
60239;SDS011;46102;39.012;-7.064;2023-08-12T02:23:22;6.97;;;1.80;;
60239;SDS011;46102;39.012;-7.064;2023-08-12T02:25:23;7.40;;;1.98;;
60239;SDS011;46102;39.012;-7.064;2023-08-12T02:27:24;6.40;;;2.08;;
60239;SDS011;46102;39.012;-7.064;2023-08-12T02:29:25;6.78;;;2.00;;
60239;SDS011;46102;39.012;-7.064;2023-08-12T02:31:25;4.10;;;1.80;;
60239;SDS011;46102;39.012;-7.064;2023-08-12T02:33:28;9.63;;;3.05;;
60239;SDS011;46102;39.012;-7.064;2023-08-12T02:35:28;7.45;;;1.85;;
60239;SDS011;46102;39.012;-7.064;2023-08-12T02:37:29;6.53;;;2.28;;
60239;SDS011;46102;39.012;-7.064;2023-08-12T02:39:30;12.52;;;2.78;;
60239;SDS011;46102;39.012;-7.064;2023-08-12T02:41:31;9.82;;;1.73;;
60239;SDS011;46102;39.012;-7.064;2023-08-12T02:43:31;7.95;;;1.83;;
60239;SDS011;46102;39.012;-7.064;2023-08-12T02:45:32;8.15;;;2.20;;
60239;SDS011;46102;39.012;-7.064;2023-08-12T02:47:33;6.18;;;2.28;;
60239;SDS011;46102;39.012;-7.064;2023-08-12T02:49:34;8.15;;;2.00;;
60239;SDS011;46102;39.012;-7.064;2023-08-12T02:51:35;8.70;;;2.88;;
60239;SDS011;46102;39.012;-7.064;2023-08-12T02:53:35;2.92;;;1.67;;
60239;SDS011;46102;39.012;-7.064;2023-08-12T02:55:36;4.65;;;1.67;;
60239;SDS011;46102;39.012;-7.064;2023-08-12T02:57:38;11.05;;;1.90;;
60239;SDS011;46102;39.012;-7.064;2023-08-12T02:59:38;5.03;;;1.80;;
60239;SDS011;46102;39.012;-7.064;2023-08-12T03:01:42;6.85;;;2.47;;
60239;SDS011;46102;39.012;-7.064;2023-08-12T03:03:42;3.37;;;1.90;;
60239;SDS011;46102;39.012;-7.064;2023-08-12T03:05:46;8.18;;;2.22;;
60239;SDS011;46102;39.012;-7.064;2023-08-12T03:07:50;9.70;;;2.80;;
60239;SDS011;46102;39.012;-7.064;2023-08-12T03:09:54;8.73;;;1.90;;
60239;SDS011;46102;39.012;-7.064;2023-08-12T03:11:55;5.82;;;2.00;;
60239;SDS011;46102;39.012;-7.064;2023-08-12T03:13:57;9.73;;;2.05;;
60239;SDS011;46102;39.012;-7.064;2023-08-12T03:15:59;12.75;;;2.30;;
60239;SDS011;46102;39.012;-7.064;2023-08-12T03:18:00;8.05;;;2.40;;
60239;SDS011;46102;39.012;-7.064;2023-08-12T03:20:01;6.07;;;1.90;;
60239;SDS011;46102;39.012;-7.064;2023-08-12T03:22:06;3.42;;;1.58;;
60239;SDS011;46102;39.012;-7.064;2023-08-12T03:24:07;5.47;;;2.15;;
60239;SDS011;46102;39.012;-7.064;2023-08-12T03:26:08;6.55;;;2.05;;
60239;SDS011;46102;39.012;-7.064;2023-08-12T03:28:09;5.45;;;2.28;;
60239;SDS011;46102;39.012;-7.064;2023-08-12T03:30:11;9.55;;;2.47;;
60239;SDS011;46102;39.012;-7.064;2023-08-12T03:32:13;6.20;;;1.90;;
60239;SDS011;46102;39.012;-7.064;2023-08-12T03:34:15;8.02;;;2.13;;
60239;SDS011;46102;39.012;-7.064;2023-08-12T03:36:17;7.07;;;2.83;;
60239;SDS011;46102;39.012;-7.064;2023-08-12T03:38:18;10.23;;;2.42;;
60239;SDS011;46102;39.012;-7.064;2023-08-12T03:40:20;5.70;;;2.13;;
60239;SDS011;46102;39.012;-7.064;2023-08-12T03:42:21;3.75;;;1.80;;
60239;SDS011;46102;39.012;-7.064;2023-08-12T03:44:23;4.85;;;2.10;;
60239;SDS011;46102;39.012;-7.064;2023-08-12T03:46:25;4.47;;;1.95;;
60239;SDS011;46102;39.012;-7.064;2023-08-12T03:48:26;6.15;;;1.98;;
60239;SDS011;46102;39.012;-7.064;2023-08-12T03:50:27;5.32;;;2.22;;
60239;SDS011;46102;39.012;-7.064;2023-08-12T03:52:28;5.57;;;1.92;;
60239;SDS011;46102;39.012;-7.064;2023-08-12T03:54:30;4.88;;;1.77;;
60239;SDS011;46102;39.012;-7.064;2023-08-12T03:56:31;13.07;;;2.50;;
60239;SDS011;46102;39.012;-7.064;2023-08-12T03:58:33;7.63;;;2.90;;
60239;SDS011;46102;39.012;-7.064;2023-08-12T04:00:34;6.57;;;2.38;;
60239;SDS011;46102;39.012;-7.064;2023-08-12T04:02:36;9.88;;;2.85;;
60239;SDS011;46102;39.012;-7.064;2023-08-12T04:04:37;4.32;;;2.20;;
60239;SDS011;46102;39.012;-7.064;2023-08-12T04:06:38;9.60;;;2.50;;
60239;SDS011;46102;39.012;-7.064;2023-08-12T04:08:39;7.18;;;2.55;;
60239;SDS011;46102;39.012;-7.064;2023-08-12T04:10:40;8.57;;;2.08;;
60239;SDS011;46102;39.012;-7.064;2023-08-12T04:12:40;12.07;;;3.05;;
60239;SDS011;46102;39.012;-7.064;2023-08-12T04:14:42;4.93;;;2.47;;
60239;SDS011;46102;39.012;-7.064;2023-08-12T04:16:43;5.15;;;2.30;;
60239;SDS011;46102;39.012;-7.064;2023-08-12T04:18:43;11.10;;;2.53;;
60239;SDS011;46102;39.012;-7.064;2023-08-12T04:20:45;3.70;;;1.90;;
60239;SDS011;46102;39.012;-7.064;2023-08-12T04:22:47;10.27;;;2.90;;
60239;SDS011;46102;39.012;-7.064;2023-08-12T04:24:49;6.25;;;2.85;;
60239;SDS011;46102;39.012;-7.064;2023-08-12T04:26:50;13.07;;;2.60;;
60239;SDS011;46102;39.012;-7.064;2023-08-12T04:28:51;11.43;;;2.50;;
60239;SDS011;46102;39.012;-7.064;2023-08-12T04:30:52;5.72;;;2.80;;
60239;SDS011;46102;39.012;-7.064;2023-08-12T04:32:54;3.35;;;2.00;;
60239;SDS011;46102;39.012;-7.064;2023-08-12T04:34:56;10.30;;;2.88;;
60239;SDS011;46102;39.012;-7.064;2023-08-12T04:36:58;6.78;;;2.80;;
60239;SDS011;46102;39.012;-7.064;2023-08-12T04:38:59;7.68;;;2.28;;
60239;SDS011;46102;39.012;-7.064;2023-08-12T04:41:01;10.43;;;3.22;;
60239;SDS011;46102;39.012;-7.064;2023-08-12T04:43:02;10.38;;;2.65;;
60239;SDS011;46102;39.012;-7.064;2023-08-12T04:45:03;12.50;;;2.42;;
60239;SDS011;46102;39.012;-7.064;2023-08-12T04:47:06;16.83;;;3.22;;
60239;SDS011;46102;39.012;-7.064;2023-08-12T04:49:09;6.75;;;2.25;;
60239;SDS011;46102;39.012;-7.064;2023-08-12T04:51:10;10.68;;;2.60;;
60239;SDS011;46102;39.012;-7.064;2023-08-12T04:53:11;6.10;;;2.58;;
60239;SDS011;46102;39.012;-7.064;2023-08-12T04:55:12;5.47;;;2.28;;
60239;SDS011;46102;39.012;-7.064;2023-08-12T04:57:13;9.73;;;2.80;;
60239;SDS011;46102;39.012;-7.064;2023-08-12T04:59:14;6.07;;;2.67;;
60239;SDS011;46102;39.012;-7.064;2023-08-12T05:01:15;11.40;;;3.85;;
60239;SDS011;46102;39.012;-7.064;2023-08-12T05:03:16;6.95;;;3.10;;
60239;SDS011;46102;39.012;-7.064;2023-08-12T05:05:18;7.32;;;2.55;;
60239;SDS011;46102;39.012;-7.064;2023-08-12T05:07:19;9.27;;;3.03;;
60239;SDS011;46102;39.012;-7.064;2023-08-12T05:09:20;6.25;;;2.63;;
60239;SDS011;46102;39.012;-7.064;2023-08-12T05:11:20;6.40;;;2.95;;
60239;SDS011;46102;39.012;-7.064;2023-08-12T05:13:21;13.10;;;3.00;;
60239;SDS011;46102;39.012;-7.064;2023-08-12T05:15:24;10.60;;;2.53;;
60239;SDS011;46102;39.012;-7.064;2023-08-12T05:17:25;11.88;;;3.08;;
60239;SDS011;46102;39.012;-7.064;2023-08-12T05:19:25;5.68;;;3.33;;
60239;SDS011;46102;39.012;-7.064;2023-08-12T05:21:26;8.75;;;2.67;;
60239;SDS011;46102;39.012;-7.064;2023-08-12T05:23:27;10.77;;;3.63;;
60239;SDS011;46102;39.012;-7.064;2023-08-12T05:25:28;5.85;;;2.45;;
60239;SDS011;46102;39.012;-7.064;2023-08-12T05:27:29;10.32;;;3.78;;
60239;SDS011;46102;39.012;-7.064;2023-08-12T05:29:30;7.95;;;3.10;;
60239;SDS011;46102;39.012;-7.064;2023-08-12T05:31:31;10.13;;;2.85;;
60239;SDS011;46102;39.012;-7.064;2023-08-12T05:33:32;11.15;;;2.72;;
60239;SDS011;46102;39.012;-7.064;2023-08-12T05:35:36;10.60;;;2.50;;
60239;SDS011;46102;39.012;-7.064;2023-08-12T05:37:37;5.85;;;2.60;;
60239;SDS011;46102;39.012;-7.064;2023-08-12T05:39:37;9.30;;;3.05;;
60239;SDS011;46102;39.012;-7.064;2023-08-12T05:41:38;9.02;;;2.85;;
60239;SDS011;46102;39.012;-7.064;2023-08-12T05:43:39;8.85;;;4.72;;
60239;SDS011;46102;39.012;-7.064;2023-08-12T05:45:40;6.45;;;2.85;;
60239;SDS011;46102;39.012;-7.064;2023-08-12T05:47:41;5.57;;;2.45;;
60239;SDS011;46102;39.012;-7.064;2023-08-12T05:49:41;6.30;;;2.92;;
60239;SDS011;46102;39.012;-7.064;2023-08-12T05:51:42;6.30;;;2.58;;
60239;SDS011;46102;39.012;-7.064;2023-08-12T05:53:43;11.38;;;3.03;;
60239;SDS011;46102;39.012;-7.064;2023-08-12T05:55:44;8.40;;;3.22;;
60239;SDS011;46102;39.012;-7.064;2023-08-12T05:57:45;8.27;;;3.47;;
60239;SDS011;46102;39.012;-7.064;2023-08-12T05:59:45;10.45;;;3.50;;
60239;SDS011;46102;39.012;-7.064;2023-08-12T06:01:46;11.88;;;4.47;;
60239;SDS011;46102;39.012;-7.064;2023-08-12T06:03:47;9.57;;;3.67;;
60239;SDS011;46102;39.012;-7.064;2023-08-12T06:05:48;8.35;;;3.85;;
60239;SDS011;46102;39.012;-7.064;2023-08-12T06:07:49;10.15;;;4.43;;
60239;SDS011;46102;39.012;-7.064;2023-08-12T06:09:50;14.35;;;4.75;;
60239;SDS011;46102;39.012;-7.064;2023-08-12T06:11:51;10.73;;;4.40;;
60239;SDS011;46102;39.012;-7.064;2023-08-12T06:13:51;7.40;;;4.47;;
60239;SDS011;46102;39.012;-7.064;2023-08-12T06:15:52;10.63;;;4.95;;
60239;SDS011;46102;39.012;-7.064;2023-08-12T06:17:53;10.45;;;4.80;;
60239;SDS011;46102;39.012;-7.064;2023-08-12T06:19:54;10.85;;;5.47;;
60239;SDS011;46102;39.012;-7.064;2023-08-12T06:21:54;12.32;;;4.57;;
60239;SDS011;46102;39.012;-7.064;2023-08-12T06:23:55;7.00;;;4.40;;
60239;SDS011;46102;39.012;-7.064;2023-08-12T06:25:56;10.90;;;4.13;;
60239;SDS011;46102;39.012;-7.064;2023-08-12T06:27:57;11.93;;;4.47;;
60239;SDS011;46102;39.012;-7.064;2023-08-12T06:29:58;11.35;;;3.97;;
60239;SDS011;46102;39.012;-7.064;2023-08-12T06:31:59;4.43;;;3.47;;
60239;SDS011;46102;39.012;-7.064;2023-08-12T06:34:00;13.75;;;4.30;;
60239;SDS011;46102;39.012;-7.064;2023-08-12T06:36:01;13.18;;;3.58;;
60239;SDS011;46102;39.012;-7.064;2023-08-12T06:38:02;10.88;;;4.07;;
60239;SDS011;46102;39.012;-7.064;2023-08-12T06:40:03;7.47;;;3.25;;
60239;SDS011;46102;39.012;-7.064;2023-08-12T06:42:04;6.70;;;2.90;;
60239;SDS011;46102;39.012;-7.064;2023-08-12T06:44:07;7.15;;;2.85;;
60239;SDS011;46102;39.012;-7.064;2023-08-12T06:46:07;13.23;;;3.25;;
60239;SDS011;46102;39.012;-7.064;2023-08-12T06:48:08;5.43;;;2.95;;
60239;SDS011;46102;39.012;-7.064;2023-08-12T06:50:09;7.05;;;3.15;;
60239;SDS011;46102;39.012;-7.064;2023-08-12T06:52:10;8.40;;;2.88;;
60239;SDS011;46102;39.012;-7.064;2023-08-12T06:54:11;4.25;;;2.85;;
60239;SDS011;46102;39.012;-7.064;2023-08-12T06:56:12;10.65;;;3.65;;
60239;SDS011;46102;39.012;-7.064;2023-08-12T06:58:13;10.68;;;3.28;;
60239;SDS011;46102;39.012;-7.064;2023-08-12T07:00:14;8.25;;;3.40;;
60239;SDS011;46102;39.012;-7.064;2023-08-12T07:02:15;11.13;;;4.45;;
60239;SDS011;46102;39.012;-7.064;2023-08-12T07:04:16;14.68;;;3.90;;
60239;SDS011;46102;39.012;-7.064;2023-08-12T07:06:17;9.38;;;3.30;;
60239;SDS011;46102;39.012;-7.064;2023-08-12T07:08:18;10.80;;;3.97;;
60239;SDS011;46102;39.012;-7.064;2023-08-12T07:10:19;11.70;;;3.70;;
60239;SDS011;46102;39.012;-7.064;2023-08-12T07:12:20;12.40;;;3.28;;
60239;SDS011;46102;39.012;-7.064;2023-08-12T07:14:20;15.52;;;3.97;;
60239;SDS011;46102;39.012;-7.064;2023-08-12T07:16:21;9.10;;;3.00;;
60239;SDS011;46102;39.012;-7.064;2023-08-12T07:18:22;5.10;;;2.65;;
60239;SDS011;46102;39.012;-7.064;2023-08-12T07:20:25;9.40;;;3.05;;
60239;SDS011;46102;39.012;-7.064;2023-08-12T07:22:26;9.63;;;2.95;;
60239;SDS011;46102;39.012;-7.064;2023-08-12T07:24:26;11.15;;;3.05;;
60239;SDS011;46102;39.012;-7.064;2023-08-12T07:26:27;18.65;;;3.10;;
60239;SDS011;46102;39.012;-7.064;2023-08-12T07:28:28;12.27;;;3.20;;
60239;SDS011;46102;39.012;-7.064;2023-08-12T07:30:29;10.60;;;3.30;;
60239;SDS011;46102;39.012;-7.064;2023-08-12T07:32:29;11.20;;;2.97;;
60239;SDS011;46102;39.012;-7.064;2023-08-12T07:34:30;17.33;;;2.88;;
60239;SDS011;46102;39.012;-7.064;2023-08-12T07:36:31;6.05;;;3.45;;
60239;SDS011;46102;39.012;-7.064;2023-08-12T07:38:33;12.43;;;3.50;;
60239;SDS011;46102;39.012;-7.064;2023-08-12T07:40:34;9.13;;;2.88;;
60239;SDS011;46102;39.012;-7.064;2023-08-12T07:42:35;8.20;;;3.97;;
60239;SDS011;46102;39.012;-7.064;2023-08-12T07:44:36;12.52;;;3.25;;
60239;SDS011;46102;39.012;-7.064;2023-08-12T07:46:37;13.68;;;3.58;;
60239;SDS011;46102;39.012;-7.064;2023-08-12T07:48:37;9.43;;;2.95;;
60239;SDS011;46102;39.012;-7.064;2023-08-12T07:50:39;9.98;;;3.05;;
60239;SDS011;46102;39.012;-7.064;2023-08-12T07:52:40;10.73;;;3.83;;
60239;SDS011;46102;39.012;-7.064;2023-08-12T07:54:41;4.43;;;2.88;;
60239;SDS011;46102;39.012;-7.064;2023-08-12T07:56:41;8.98;;;3.42;;
60239;SDS011;46102;39.012;-7.064;2023-08-12T07:58:42;16.50;;;3.63;;
60239;SDS011;46102;39.012;-7.064;2023-08-12T08:00:43;8.07;;;3.17;;
60239;SDS011;46102;39.012;-7.064;2023-08-12T08:02:44;7.15;;;3.10;;
60239;SDS011;46102;39.012;-7.064;2023-08-12T08:04:44;7.22;;;2.95;;
60239;SDS011;46102;39.012;-7.064;2023-08-12T08:06:49;15.88;;;3.50;;
60239;SDS011;46102;39.012;-7.064;2023-08-12T08:08:50;7.18;;;3.55;;
60239;SDS011;46102;39.012;-7.064;2023-08-12T08:10:50;9.18;;;3.25;;
60239;SDS011;46102;39.012;-7.064;2023-08-12T08:12:51;16.10;;;3.78;;
60239;SDS011;46102;39.012;-7.064;2023-08-12T08:14:52;13.75;;;3.30;;
60239;SDS011;46102;39.012;-7.064;2023-08-12T08:16:53;11.63;;;3.13;;
60239;SDS011;46102;39.012;-7.064;2023-08-12T08:18:54;7.97;;;2.67;;
60239;SDS011;46102;39.012;-7.064;2023-08-12T08:20:54;13.10;;;3.70;;
60239;SDS011;46102;39.012;-7.064;2023-08-12T08:22:55;17.05;;;3.60;;
60239;SDS011;46102;39.012;-7.064;2023-08-12T08:24:56;9.88;;;3.13;;
60239;SDS011;46102;39.012;-7.064;2023-08-12T08:26:57;7.20;;;3.47;;
60239;SDS011;46102;39.012;-7.064;2023-08-12T08:28:58;6.53;;;2.85;;
60239;SDS011;46102;39.012;-7.064;2023-08-12T08:30:58;14.45;;;2.75;;
60239;SDS011;46102;39.012;-7.064;2023-08-12T08:32:59;19.88;;;3.13;;
60239;SDS011;46102;39.012;-7.064;2023-08-12T08:35:00;7.18;;;3.20;;
60239;SDS011;46102;39.012;-7.064;2023-08-12T08:37:01;7.95;;;3.28;;
60239;SDS011;46102;39.012;-7.064;2023-08-12T08:39:01;7.10;;;3.20;;
60239;SDS011;46102;39.012;-7.064;2023-08-12T08:41:03;6.55;;;2.80;;
60239;SDS011;46102;39.012;-7.064;2023-08-12T08:43:06;5.60;;;2.92;;
60239;SDS011;46102;39.012;-7.064;2023-08-12T08:45:10;7.30;;;3.00;;
60239;SDS011;46102;39.012;-7.064;2023-08-12T08:47:13;5.00;;;2.53;;
60239;SDS011;46102;39.012;-7.064;2023-08-12T08:49:18;14.00;;;3.60;;
60239;SDS011;46102;39.012;-7.064;2023-08-12T08:51:20;9.02;;;3.25;;
60239;SDS011;46102;39.012;-7.064;2023-08-12T08:53:21;13.05;;;3.30;;
60239;SDS011;46102;39.012;-7.064;2023-08-12T08:55:22;17.92;;;2.83;;
60239;SDS011;46102;39.012;-7.064;2023-08-12T08:57:23;6.00;;;3.03;;
60239;SDS011;46102;39.012;-7.064;2023-08-12T08:59:24;8.90;;;3.40;;
60239;SDS011;46102;39.012;-7.064;2023-08-12T09:01:25;9.95;;;3.92;;
60239;SDS011;46102;39.012;-7.064;2023-08-12T09:03:29;21.48;;;4.28;;
60239;SDS011;46102;39.012;-7.064;2023-08-12T09:05:30;8.25;;;3.00;;
60239;SDS011;46102;39.012;-7.064;2023-08-12T09:07:32;9.50;;;2.95;;
60239;SDS011;46102;39.012;-7.064;2023-08-12T09:09:34;12.38;;;3.05;;
60239;SDS011;46102;39.012;-7.064;2023-08-12T09:11:38;12.63;;;3.35;;
60239;SDS011;46102;39.012;-7.064;2023-08-12T09:13:39;12.52;;;3.42;;
60239;SDS011;46102;39.012;-7.064;2023-08-12T09:15:40;6.28;;;2.88;;
60239;SDS011;46102;39.012;-7.064;2023-08-12T09:17:40;4.05;;;2.58;;
60239;SDS011;46102;39.012;-7.064;2023-08-12T09:19:41;9.63;;;3.47;;
60239;SDS011;46102;39.012;-7.064;2023-08-12T09:21:42;7.47;;;3.25;;
60239;SDS011;46102;39.012;-7.064;2023-08-12T09:23:43;8.18;;;2.67;;
60239;SDS011;46102;39.012;-7.064;2023-08-12T09:25:45;12.95;;;3.20;;
60239;SDS011;46102;39.012;-7.064;2023-08-12T09:27:46;6.55;;;2.67;;
60239;SDS011;46102;39.012;-7.064;2023-08-12T09:29:47;6.57;;;3.08;;
60239;SDS011;46102;39.012;-7.064;2023-08-12T09:31:47;6.07;;;3.38;;
60239;SDS011;46102;39.012;-7.064;2023-08-12T09:33:48;3.72;;;2.75;;
60239;SDS011;46102;39.012;-7.064;2023-08-12T09:35:49;7.57;;;2.78;;
60239;SDS011;46102;39.012;-7.064;2023-08-12T09:37:50;6.45;;;2.88;;
60239;SDS011;46102;39.012;-7.064;2023-08-12T09:39:51;10.40;;;2.72;;
60239;SDS011;46102;39.012;-7.064;2023-08-12T09:41:52;10.45;;;2.70;;
60239;SDS011;46102;39.012;-7.064;2023-08-12T09:43:54;7.60;;;3.20;;
60239;SDS011;46102;39.012;-7.064;2023-08-12T09:45:56;7.60;;;3.08;;
60239;SDS011;46102;39.012;-7.064;2023-08-12T09:48:00;14.48;;;3.10;;
60239;SDS011;46102;39.012;-7.064;2023-08-12T09:50:01;10.38;;;2.88;;
60239;SDS011;46102;39.012;-7.064;2023-08-12T09:52:02;7.97;;;2.85;;
60239;SDS011;46102;39.012;-7.064;2023-08-12T09:54:04;7.68;;;2.33;;
60239;SDS011;46102;39.012;-7.064;2023-08-12T09:56:06;9.43;;;2.45;;
60239;SDS011;46102;39.012;-7.064;2023-08-12T09:58:08;11.88;;;2.63;;
60239;SDS011;46102;39.012;-7.064;2023-08-12T10:00:10;7.50;;;2.42;;
60239;SDS011;46102;39.012;-7.064;2023-08-12T10:02:16;14.45;;;3.03;;
60239;SDS011;46102;39.012;-7.064;2023-08-12T10:04:20;9.57;;;3.10;;
60239;SDS011;46102;39.012;-7.064;2023-08-12T10:06:23;6.25;;;2.33;;
60239;SDS011;46102;39.012;-7.064;2023-08-12T10:08:25;6.95;;;2.78;;
60239;SDS011;46102;39.012;-7.064;2023-08-12T10:10:28;7.27;;;2.43;;
60239;SDS011;46102;39.012;-7.064;2023-08-12T10:12:30;10.20;;;2.80;;
60239;SDS011;46102;39.012;-7.064;2023-08-12T10:14:31;8.25;;;3.03;;
60239;SDS011;46102;39.012;-7.064;2023-08-12T10:16:32;7.38;;;3.45;;
60239;SDS011;46102;39.012;-7.064;2023-08-12T10:18:35;13.90;;;2.85;;
60239;SDS011;46102;39.012;-7.064;2023-08-12T10:20:38;10.57;;;1.95;;
60239;SDS011;46102;39.012;-7.064;2023-08-12T10:22:40;7.65;;;1.98;;
60239;SDS011;46102;39.012;-7.064;2023-08-12T10:24:43;8.18;;;2.53;;
60239;SDS011;46102;39.012;-7.064;2023-08-12T10:26:46;9.20;;;2.80;;
60239;SDS011;46102;39.012;-7.064;2023-08-12T10:28:48;5.78;;;2.17;;
60239;SDS011;46102;39.012;-7.064;2023-08-12T10:30:49;9.82;;;2.15;;
60239;SDS011;46102;39.012;-7.064;2023-08-12T10:32:50;7.32;;;2.05;;
60239;SDS011;46102;39.012;-7.064;2023-08-12T10:34:54;7.53;;;2.00;;
60239;SDS011;46102;39.012;-7.064;2023-08-12T10:36:57;4.82;;;2.15;;
60239;SDS011;46102;39.012;-7.064;2023-08-12T10:39:02;3.38;;;1.80;;
60239;SDS011;46102;39.012;-7.064;2023-08-12T10:41:21;12.10;;;2.13;;
60239;SDS011;46102;39.012;-7.064;2023-08-12T10:43:23;8.68;;;2.10;;
60239;SDS011;46102;39.012;-7.064;2023-08-12T10:45:40;6.00;;;2.25;;
60239;SDS011;46102;39.012;-7.064;2023-08-12T10:47:43;12.25;;;2.33;;
60239;SDS011;46102;39.012;-7.064;2023-08-12T10:49:59;9.13;;;2.42;;
60239;SDS011;46102;39.012;-7.064;2023-08-12T10:52:02;8.32;;;2.42;;
60239;SDS011;46102;39.012;-7.064;2023-08-12T10:56:30;4.10;;;1.80;;
60239;SDS011;46102;39.012;-7.064;2023-08-12T10:58:34;10.68;;;1.88;;
60239;SDS011;46102;39.012;-7.064;2023-08-12T11:00:41;8.15;;;1.98;;
60239;SDS011;46102;39.012;-7.064;2023-08-12T11:02:45;4.97;;;2.33;;
60239;SDS011;46102;39.012;-7.064;2023-08-12T11:04:51;6.57;;;2.70;;
60239;SDS011;46102;39.012;-7.064;2023-08-12T11:06:54;14.73;;;2.42;;
60239;SDS011;46102;39.012;-7.064;2023-08-12T11:08:55;6.70;;;2.30;;
60239;SDS011;46102;39.012;-7.064;2023-08-12T11:10:56;8.43;;;2.15;;
60239;SDS011;46102;39.012;-7.064;2023-08-12T11:12:58;7.25;;;2.28;;
60239;SDS011;46102;39.012;-7.064;2023-08-12T11:14:59;4.95;;;1.67;;
60239;SDS011;46102;39.012;-7.064;2023-08-12T11:17:03;4.80;;;2.47;;
60239;SDS011;46102;39.012;-7.064;2023-08-12T11:19:14;17.13;;;1.98;;
60239;SDS011;46102;39.012;-7.064;2023-08-12T11:21:15;3.20;;;1.40;;
60239;SDS011;46102;39.012;-7.064;2023-08-12T11:23:18;3.75;;;1.45;;
60239;SDS011;46102;39.012;-7.064;2023-08-12T11:25:20;11.57;;;2.00;;
60239;SDS011;46102;39.012;-7.064;2023-08-12T11:27:21;11.73;;;2.00;;
60239;SDS011;46102;39.012;-7.064;2023-08-12T11:29:22;7.28;;;1.88;;
60239;SDS011;46102;39.012;-7.064;2023-08-12T11:31:24;4.40;;;1.52;;
60239;SDS011;46102;39.012;-7.064;2023-08-12T11:33:26;5.38;;;1.45;;
60239;SDS011;46102;39.012;-7.064;2023-08-12T11:35:26;6.50;;;2.17;;
60239;SDS011;46102;39.012;-7.064;2023-08-12T11:37:28;6.63;;;1.40;;
60239;SDS011;46102;39.012;-7.064;2023-08-12T11:39:29;6.55;;;1.50;;
60239;SDS011;46102;39.012;-7.064;2023-08-12T11:41:30;6.22;;;1.67;;
60239;SDS011;46102;39.012;-7.064;2023-08-12T11:43:33;11.90;;;2.75;;
60239;SDS011;46102;39.012;-7.064;2023-08-12T11:45:34;4.90;;;1.85;;
60239;SDS011;46102;39.012;-7.064;2023-08-12T11:47:35;6.25;;;1.80;;
60239;SDS011;46102;39.012;-7.064;2023-08-12T11:49:37;7.05;;;1.60;;
60239;SDS011;46102;39.012;-7.064;2023-08-12T11:51:37;11.88;;;1.45;;
60239;SDS011;46102;39.012;-7.064;2023-08-12T11:53:39;5.43;;;2.13;;
60239;SDS011;46102;39.012;-7.064;2023-08-12T11:55:40;5.80;;;1.88;;
60239;SDS011;46102;39.012;-7.064;2023-08-12T11:57:41;8.77;;;1.55;;
60239;SDS011;46102;39.012;-7.064;2023-08-12T11:59:42;8.57;;;1.58;;
60239;SDS011;46102;39.012;-7.064;2023-08-12T12:01:46;5.45;;;1.67;;
60239;SDS011;46102;39.012;-7.064;2023-08-12T12:03:51;5.97;;;1.75;;